sensor_id;sensor_type;location;lat;lon;timestamp;P1;durP1;ratioP1;P2;durP2;ratioP2
11039;SDS011;5573;49.592;8.662;2023-07-30T00:00:54;293.98;;;278.65;;
11039;SDS011;5573;49.592;8.662;2023-07-30T00:03:22;286.70;;;271.73;;
11039;SDS011;5573;49.592;8.662;2023-07-30T00:05:53;281.30;;;266.52;;
11039;SDS011;5573;49.592;8.662;2023-07-30T00:08:22;275.02;;;260.63;;
11039;SDS011;5573;49.592;8.662;2023-07-30T00:10:50;277.38;;;262.70;;
11039;SDS011;5573;49.592;8.662;2023-07-30T00:13:18;278.15;;;263.80;;
11039;SDS011;5573;49.592;8.662;2023-07-30T00:15:46;278.60;;;263.85;;
11039;SDS011;5573;49.592;8.662;2023-07-30T00:18:15;270.48;;;256.63;;
11039;SDS011;5573;49.592;8.662;2023-07-30T00:20:44;295.35;;;279.98;;
11039;SDS011;5573;49.592;8.662;2023-07-30T00:23:12;286.38;;;271.38;;
11039;SDS011;5573;49.592;8.662;2023-07-30T00:25:39;270.88;;;256.60;;
11039;SDS011;5573;49.592;8.662;2023-07-30T00:28:08;283.40;;;268.83;;
11039;SDS011;5573;49.592;8.662;2023-07-30T00:30:36;287.02;;;272.15;;
11039;SDS011;5573;49.592;8.662;2023-07-30T00:33:03;289.75;;;274.50;;
11039;SDS011;5573;49.592;8.662;2023-07-30T00:35:32;283.65;;;268.92;;
11039;SDS011;5573;49.592;8.662;2023-07-30T00:38:00;275.70;;;261.52;;
11039;SDS011;5573;49.592;8.662;2023-07-30T00:40:29;286.17;;;271.25;;
11039;SDS011;5573;49.592;8.662;2023-07-30T00:42:56;282.05;;;267.45;;
11039;SDS011;5573;49.592;8.662;2023-07-30T00:45:24;268.23;;;254.20;;
11039;SDS011;5573;49.592;8.662;2023-07-30T00:47:53;278.95;;;264.65;;
11039;SDS011;5573;49.592;8.662;2023-07-30T00:50:21;289.20;;;274.17;;
11039;SDS011;5573;49.592;8.662;2023-07-30T00:52:50;271.67;;;257.67;;
11039;SDS011;5573;49.592;8.662;2023-07-30T00:55:19;270.70;;;256.65;;
11039;SDS011;5573;49.592;8.662;2023-07-30T00:57:47;277.92;;;263.52;;
11039;SDS011;5573;49.592;8.662;2023-07-30T01:00:15;271.13;;;257.13;;
11039;SDS011;5573;49.592;8.662;2023-07-30T01:02:44;273.52;;;259.40;;
11039;SDS011;5573;49.592;8.662;2023-07-30T01:05:12;282.90;;;267.95;;
11039;SDS011;5573;49.592;8.662;2023-07-30T01:07:40;277.10;;;262.85;;
11039;SDS011;5573;49.592;8.662;2023-07-30T01:10:09;277.30;;;263.13;;
11039;SDS011;5573;49.592;8.662;2023-07-30T01:12:37;272.13;;;258.17;;
11039;SDS011;5573;49.592;8.662;2023-07-30T01:15:07;272.83;;;258.75;;
11039;SDS011;5573;49.592;8.662;2023-07-30T01:17:37;286.95;;;272.17;;
11039;SDS011;5573;49.592;8.662;2023-07-30T01:20:05;275.25;;;261.13;;
11039;SDS011;5573;49.592;8.662;2023-07-30T01:22:36;270.60;;;256.48;;
11039;SDS011;5573;49.592;8.662;2023-07-30T01:25:04;279.88;;;265.42;;
11039;SDS011;5573;49.592;8.662;2023-07-30T01:27:33;281.45;;;266.85;;
11039;SDS011;5573;49.592;8.662;2023-07-30T01:30:08;264.05;;;250.10;;
11039;SDS011;5573;49.592;8.662;2023-07-30T01:32:45;277.95;;;263.77;;
11039;SDS011;5573;49.592;8.662;2023-07-30T01:35:16;282.55;;;267.83;;
11039;SDS011;5573;49.592;8.662;2023-07-30T01:37:49;284.38;;;269.63;;
11039;SDS011;5573;49.592;8.662;2023-07-30T01:40:18;266.05;;;252.10;;
11039;SDS011;5573;49.592;8.662;2023-07-30T01:42:48;270.65;;;256.77;;
11039;SDS011;5573;49.592;8.662;2023-07-30T01:45:16;270.50;;;256.60;;
11039;SDS011;5573;49.592;8.662;2023-07-30T01:47:44;288.00;;;273.02;;
11039;SDS011;5573;49.592;8.662;2023-07-30T01:50:13;269.73;;;255.70;;
11039;SDS011;5573;49.592;8.662;2023-07-30T01:52:40;271.45;;;257.13;;
11039;SDS011;5573;49.592;8.662;2023-07-30T01:55:10;285.48;;;270.70;;
11039;SDS011;5573;49.592;8.662;2023-07-30T01:57:38;278.35;;;263.92;;
11039;SDS011;5573;49.592;8.662;2023-07-30T02:00:06;269.38;;;255.32;;
11039;SDS011;5573;49.592;8.662;2023-07-30T02:02:35;281.50;;;266.77;;
11039;SDS011;5573;49.592;8.662;2023-07-30T02:05:03;266.13;;;252.30;;
11039;SDS011;5573;49.592;8.662;2023-07-30T02:07:31;260.85;;;247.35;;
11039;SDS011;5573;49.592;8.662;2023-07-30T02:09:59;265.88;;;252.30;;
11039;SDS011;5573;49.592;8.662;2023-07-30T02:12:29;266.25;;;252.43;;
11039;SDS011;5573;49.592;8.662;2023-07-30T02:14:57;270.45;;;256.45;;
11039;SDS011;5573;49.592;8.662;2023-07-30T02:17:25;263.92;;;250.07;;
11039;SDS011;5573;49.592;8.662;2023-07-30T02:19:53;273.70;;;259.50;;
11039;SDS011;5573;49.592;8.662;2023-07-30T02:22:21;262.50;;;249.02;;
11039;SDS011;5573;49.592;8.662;2023-07-30T02:24:49;270.98;;;257.00;;
11039;SDS011;5573;49.592;8.662;2023-07-30T02:27:17;254.30;;;241.00;;
11039;SDS011;5573;49.592;8.662;2023-07-30T02:29:46;258.50;;;245.00;;
11039;SDS011;5573;49.592;8.662;2023-07-30T02:32:15;273.00;;;258.85;;
11039;SDS011;5573;49.592;8.662;2023-07-30T02:34:43;274.35;;;260.40;;
11039;SDS011;5573;49.592;8.662;2023-07-30T02:37:11;269.90;;;255.77;;
11039;SDS011;5573;49.592;8.662;2023-07-30T02:39:39;269.25;;;255.25;;
11039;SDS011;5573;49.592;8.662;2023-07-30T02:42:07;276.83;;;262.23;;
11039;SDS011;5573;49.592;8.662;2023-07-30T02:44:35;273.58;;;259.55;;
11039;SDS011;5573;49.592;8.662;2023-07-30T02:47:04;297.23;;;281.83;;
11039;SDS011;5573;49.592;8.662;2023-07-30T02:49:32;270.92;;;256.92;;
11039;SDS011;5573;49.592;8.662;2023-07-30T02:52:00;275.55;;;261.27;;
11039;SDS011;5573;49.592;8.662;2023-07-30T02:54:28;268.35;;;254.23;;
11039;SDS011;5573;49.592;8.662;2023-07-30T02:56:55;267.80;;;253.90;;
11039;SDS011;5573;49.592;8.662;2023-07-30T02:59:23;263.35;;;249.77;;
11039;SDS011;5573;49.592;8.662;2023-07-30T03:01:51;276.58;;;262.40;;
11039;SDS011;5573;49.592;8.662;2023-07-30T03:04:20;274.88;;;260.58;;
11039;SDS011;5573;49.592;8.662;2023-07-30T03:06:48;278.75;;;264.35;;
11039;SDS011;5573;49.592;8.662;2023-07-30T03:09:16;284.38;;;269.77;;
11039;SDS011;5573;49.592;8.662;2023-07-30T03:11:44;265.63;;;251.95;;
11039;SDS011;5573;49.592;8.662;2023-07-30T03:14:12;273.00;;;258.85;;
11039;SDS011;5573;49.592;8.662;2023-07-30T03:16:39;269.70;;;255.52;;
11039;SDS011;5573;49.592;8.662;2023-07-30T03:19:07;266.65;;;252.75;;
11039;SDS011;5573;49.592;8.662;2023-07-30T03:21:36;276.17;;;261.83;;
11039;SDS011;5573;49.592;8.662;2023-07-30T03:24:05;261.08;;;247.40;;
11039;SDS011;5573;49.592;8.662;2023-07-30T03:26:33;279.48;;;264.98;;
11039;SDS011;5573;49.592;8.662;2023-07-30T03:29:00;265.42;;;251.85;;
11039;SDS011;5573;49.592;8.662;2023-07-30T03:31:28;266.88;;;252.93;;
11039;SDS011;5573;49.592;8.662;2023-07-30T03:33:56;276.95;;;262.52;;
11039;SDS011;5573;49.592;8.662;2023-07-30T03:36:25;264.95;;;250.95;;
11039;SDS011;5573;49.592;8.662;2023-07-30T03:38:54;267.85;;;253.93;;
11039;SDS011;5573;49.592;8.662;2023-07-30T03:41:22;260.40;;;246.77;;
11039;SDS011;5573;49.592;8.662;2023-07-30T03:43:52;257.42;;;244.02;;
11039;SDS011;5573;49.592;8.662;2023-07-30T03:46:20;275.15;;;260.65;;
11039;SDS011;5573;49.592;8.662;2023-07-30T03:48:48;268.73;;;254.90;;
11039;SDS011;5573;49.592;8.662;2023-07-30T03:51:16;270.17;;;256.05;;
11039;SDS011;5573;49.592;8.662;2023-07-30T03:53:44;269.95;;;255.88;;
11039;SDS011;5573;49.592;8.662;2023-07-30T03:56:13;274.92;;;260.75;;
11039;SDS011;5573;49.592;8.662;2023-07-30T03:58:41;261.80;;;248.07;;
11039;SDS011;5573;49.592;8.662;2023-07-30T04:01:09;257.08;;;243.63;;
11039;SDS011;5573;49.592;8.662;2023-07-30T04:03:37;267.35;;;253.57;;
11039;SDS011;5573;49.592;8.662;2023-07-30T04:06:05;253.25;;;240.25;;
11039;SDS011;5573;49.592;8.662;2023-07-30T04:08:33;273.17;;;258.95;;
11039;SDS011;5573;49.592;8.662;2023-07-30T04:11:00;265.10;;;251.43;;
11039;SDS011;5573;49.592;8.662;2023-07-30T04:13:29;267.60;;;253.50;;
11039;SDS011;5573;49.592;8.662;2023-07-30T04:15:57;253.48;;;240.20;;
11039;SDS011;5573;49.592;8.662;2023-07-30T04:18:25;266.85;;;252.80;;
11039;SDS011;5573;49.592;8.662;2023-07-30T04:20:53;246.77;;;233.63;;
11039;SDS011;5573;49.592;8.662;2023-07-30T04:23:22;259.05;;;245.52;;
11039;SDS011;5573;49.592;8.662;2023-07-30T04:25:49;258.13;;;244.82;;
11039;SDS011;5573;49.592;8.662;2023-07-30T04:28:17;255.07;;;241.75;;
11039;SDS011;5573;49.592;8.662;2023-07-30T04:30:47;264.40;;;250.68;;
11039;SDS011;5573;49.592;8.662;2023-07-30T04:33:15;262.85;;;249.13;;
11039;SDS011;5573;49.592;8.662;2023-07-30T04:35:43;264.08;;;250.40;;
11039;SDS011;5573;49.592;8.662;2023-07-30T04:38:11;268.00;;;253.88;;
11039;SDS011;5573;49.592;8.662;2023-07-30T04:40:39;264.08;;;250.30;;
11039;SDS011;5573;49.592;8.662;2023-07-30T04:43:07;265.85;;;252.15;;
11039;SDS011;5573;49.592;8.662;2023-07-30T04:45:36;265.20;;;251.30;;
11039;SDS011;5573;49.592;8.662;2023-07-30T04:48:06;260.38;;;246.57;;
11039;SDS011;5573;49.592;8.662;2023-07-30T04:50:33;261.60;;;248.05;;
11039;SDS011;5573;49.592;8.662;2023-07-30T04:53:01;271.27;;;256.92;;
11039;SDS011;5573;49.592;8.662;2023-07-30T04:55:30;264.95;;;251.00;;
11039;SDS011;5573;49.592;8.662;2023-07-30T04:58:00;269.20;;;254.98;;
11039;SDS011;5573;49.592;8.662;2023-07-30T05:00:28;258.52;;;245.18;;
11039;SDS011;5573;49.592;8.662;2023-07-30T05:02:56;262.50;;;248.82;;
11039;SDS011;5573;49.592;8.662;2023-07-30T05:05:25;249.93;;;236.73;;
11039;SDS011;5573;49.592;8.662;2023-07-30T05:07:53;254.95;;;241.88;;
11039;SDS011;5573;49.592;8.662;2023-07-30T05:10:21;251.50;;;238.43;;
11039;SDS011;5573;49.592;8.662;2023-07-30T05:12:49;272.50;;;258.25;;
11039;SDS011;5573;49.592;8.662;2023-07-30T05:15:17;267.85;;;254.00;;
11039;SDS011;5573;49.592;8.662;2023-07-30T05:17:44;252.18;;;238.82;;
11039;SDS011;5573;49.592;8.662;2023-07-30T05:20:12;271.90;;;257.75;;
11039;SDS011;5573;49.592;8.662;2023-07-30T05:22:41;268.10;;;254.27;;
11039;SDS011;5573;49.592;8.662;2023-07-30T05:25:09;251.20;;;238.40;;
11039;SDS011;5573;49.592;8.662;2023-07-30T05:27:37;267.05;;;253.25;;
11039;SDS011;5573;49.592;8.662;2023-07-30T05:30:05;276.13;;;262.00;;
11039;SDS011;5573;49.592;8.662;2023-07-30T05:32:34;272.73;;;258.80;;
11039;SDS011;5573;49.592;8.662;2023-07-30T05:35:01;274.67;;;260.33;;
11039;SDS011;5573;49.592;8.662;2023-07-30T05:37:29;261.98;;;248.40;;
11039;SDS011;5573;49.592;8.662;2023-07-30T05:39:59;255.43;;;242.07;;
11039;SDS011;5573;49.592;8.662;2023-07-30T05:42:26;260.50;;;246.77;;
11039;SDS011;5573;49.592;8.662;2023-07-30T05:44:55;250.65;;;237.15;;
11039;SDS011;5573;49.592;8.662;2023-07-30T05:47:22;256.02;;;242.63;;
11039;SDS011;5573;49.592;8.662;2023-07-30T05:49:50;258.08;;;244.75;;
11039;SDS011;5573;49.592;8.662;2023-07-30T05:52:18;259.25;;;245.60;;
11039;SDS011;5573;49.592;8.662;2023-07-30T05:54:46;240.43;;;227.98;;
11039;SDS011;5573;49.592;8.662;2023-07-30T05:57:15;253.82;;;240.43;;
11039;SDS011;5573;49.592;8.662;2023-07-30T05:59:43;253.75;;;240.65;;
11039;SDS011;5573;49.592;8.662;2023-07-30T06:02:11;237.68;;;225.23;;
11039;SDS011;5573;49.592;8.662;2023-07-30T06:04:38;249.95;;;236.88;;
11039;SDS011;5573;49.592;8.662;2023-07-30T06:07:07;253.32;;;240.35;;
11039;SDS011;5573;49.592;8.662;2023-07-30T06:09:34;257.90;;;244.43;;
11039;SDS011;5573;49.592;8.662;2023-07-30T06:12:02;246.98;;;234.05;;
11039;SDS011;5573;49.592;8.662;2023-07-30T06:14:31;254.25;;;240.88;;
11039;SDS011;5573;49.592;8.662;2023-07-30T06:16:59;259.67;;;246.13;;
11039;SDS011;5573;49.592;8.662;2023-07-30T06:19:28;239.80;;;227.15;;
11039;SDS011;5573;49.592;8.662;2023-07-30T06:21:55;245.38;;;232.45;;
11039;SDS011;5573;49.592;8.662;2023-07-30T06:24:23;239.88;;;227.13;;
11039;SDS011;5573;49.592;8.662;2023-07-30T06:26:51;228.07;;;216.23;;
11039;SDS011;5573;49.592;8.662;2023-07-30T06:29:19;234.52;;;222.27;;
11039;SDS011;5573;49.592;8.662;2023-07-30T06:31:48;244.90;;;232.13;;
11039;SDS011;5573;49.592;8.662;2023-07-30T06:34:16;240.70;;;228.18;;
11039;SDS011;5573;49.592;8.662;2023-07-30T06:36:44;249.60;;;236.95;;
11039;SDS011;5573;49.592;8.662;2023-07-30T06:39:12;253.23;;;240.13;;
11039;SDS011;5573;49.592;8.662;2023-07-30T06:41:40;253.07;;;239.77;;
11039;SDS011;5573;49.592;8.662;2023-07-30T06:44:08;261.88;;;248.23;;
11039;SDS011;5573;49.592;8.662;2023-07-30T06:46:36;242.43;;;229.88;;
11039;SDS011;5573;49.592;8.662;2023-07-30T06:49:05;260.95;;;247.48;;
11039;SDS011;5573;49.592;8.662;2023-07-30T06:51:33;244.15;;;231.50;;
11039;SDS011;5573;49.592;8.662;2023-07-30T06:54:02;252.15;;;239.05;;
11039;SDS011;5573;49.592;8.662;2023-07-30T06:56:30;257.98;;;244.90;;
11039;SDS011;5573;49.592;8.662;2023-07-30T06:58:58;235.73;;;223.50;;
11039;SDS011;5573;49.592;8.662;2023-07-30T07:01:26;242.05;;;229.18;;
11039;SDS011;5573;49.592;8.662;2023-07-30T07:03:54;248.82;;;236.10;;
11039;SDS011;5573;49.592;8.662;2023-07-30T07:06:23;247.38;;;234.82;;
11039;SDS011;5573;49.592;8.662;2023-07-30T07:08:52;254.05;;;241.18;;
11039;SDS011;5573;49.592;8.662;2023-07-30T07:11:20;247.07;;;234.32;;
11039;SDS011;5573;49.592;8.662;2023-07-30T07:13:49;261.10;;;247.90;;
11039;SDS011;5573;49.592;8.662;2023-07-30T07:16:16;265.63;;;251.93;;
11039;SDS011;5573;49.592;8.662;2023-07-30T07:18:45;231.55;;;219.65;;
11039;SDS011;5573;49.592;8.662;2023-07-30T07:21:15;236.27;;;224.13;;
11039;SDS011;5573;49.592;8.662;2023-07-30T07:23:44;212.80;;;201.70;;
11039;SDS011;5573;49.592;8.662;2023-07-30T07:26:12;239.73;;;227.32;;
11039;SDS011;5573;49.592;8.662;2023-07-30T07:28:40;235.35;;;223.30;;
11039;SDS011;5573;49.592;8.662;2023-07-30T07:31:08;239.40;;;227.23;;
11039;SDS011;5573;49.592;8.662;2023-07-30T07:33:35;240.43;;;227.95;;
11039;SDS011;5573;49.592;8.662;2023-07-30T07:36:04;241.15;;;228.73;;
11039;SDS011;5573;49.592;8.662;2023-07-30T07:38:32;251.20;;;238.38;;
11039;SDS011;5573;49.592;8.662;2023-07-30T07:41:02;249.52;;;236.82;;
11039;SDS011;5573;49.592;8.662;2023-07-30T07:43:30;238.27;;;225.85;;
11039;SDS011;5573;49.592;8.662;2023-07-30T07:45:58;256.70;;;243.43;;
11039;SDS011;5573;49.592;8.662;2023-07-30T07:48:26;248.45;;;235.80;;
11039;SDS011;5573;49.592;8.662;2023-07-30T07:50:54;246.25;;;233.60;;
11039;SDS011;5573;49.592;8.662;2023-07-30T07:53:21;242.18;;;229.68;;
11039;SDS011;5573;49.592;8.662;2023-07-30T07:55:49;260.27;;;246.77;;
11039;SDS011;5573;49.592;8.662;2023-07-30T07:58:18;266.85;;;253.27;;
11039;SDS011;5573;49.592;8.662;2023-07-30T08:00:46;261.92;;;248.35;;
11039;SDS011;5573;49.592;8.662;2023-07-30T08:03:14;255.25;;;242.15;;
11039;SDS011;5573;49.592;8.662;2023-07-30T08:05:42;253.52;;;240.27;;
11039;SDS011;5573;49.592;8.662;2023-07-30T08:08:09;240.85;;;228.30;;
11039;SDS011;5573;49.592;8.662;2023-07-30T08:10:38;262.95;;;249.48;;
11039;SDS011;5573;49.592;8.662;2023-07-30T08:13:09;267.10;;;253.23;;
11039;SDS011;5573;49.592;8.662;2023-07-30T08:15:39;266.17;;;252.27;;
11039;SDS011;5573;49.592;8.662;2023-07-30T08:18:07;271.40;;;257.27;;
11039;SDS011;5573;49.592;8.662;2023-07-30T08:20:35;288.48;;;273.58;;
11039;SDS011;5573;49.592;8.662;2023-07-30T08:23:03;258.55;;;245.00;;
11039;SDS011;5573;49.592;8.662;2023-07-30T08:25:31;261.77;;;248.15;;
11039;SDS011;5573;49.592;8.662;2023-07-30T08:27:59;256.63;;;243.15;;
11039;SDS011;5573;49.592;8.662;2023-07-30T08:30:26;248.35;;;235.80;;
11039;SDS011;5573;49.592;8.662;2023-07-30T08:32:56;261.20;;;247.65;;
11039;SDS011;5573;49.592;8.662;2023-07-30T08:35:24;239.57;;;227.07;;
11039;SDS011;5573;49.592;8.662;2023-07-30T08:37:53;236.15;;;223.80;;
11039;SDS011;5573;49.592;8.662;2023-07-30T08:40:21;244.68;;;231.98;;
11039;SDS011;5573;49.592;8.662;2023-07-30T08:42:50;249.52;;;236.90;;
11039;SDS011;5573;49.592;8.662;2023-07-30T08:45:18;253.60;;;240.27;;
11039;SDS011;5573;49.592;8.662;2023-07-30T08:47:47;232.85;;;220.90;;
11039;SDS011;5573;49.592;8.662;2023-07-30T08:50:16;203.35;;;192.70;;
11039;SDS011;5573;49.592;8.662;2023-07-30T08:52:44;219.30;;;207.98;;
11039;SDS011;5573;49.592;8.662;2023-07-30T08:55:12;191.43;;;181.48;;
11039;SDS011;5573;49.592;8.662;2023-07-30T08:57:40;189.63;;;179.88;;
11039;SDS011;5573;49.592;8.662;2023-07-30T09:00:10;188.70;;;179.02;;
11039;SDS011;5573;49.592;8.662;2023-07-30T09:02:39;175.45;;;166.35;;
11039;SDS011;5573;49.592;8.662;2023-07-30T09:05:10;169.98;;;161.05;;
11039;SDS011;5573;49.592;8.662;2023-07-30T09:07:40;155.95;;;147.88;;
11039;SDS011;5573;49.592;8.662;2023-07-30T09:10:08;152.32;;;144.43;;
11039;SDS011;5573;49.592;8.662;2023-07-30T09:12:36;173.40;;;164.40;;
11039;SDS011;5573;49.592;8.662;2023-07-30T09:15:05;195.32;;;185.27;;
11039;SDS011;5573;49.592;8.662;2023-07-30T09:17:34;168.57;;;159.55;;
11039;SDS011;5573;49.592;8.662;2023-07-30T09:20:02;175.10;;;165.73;;
11039;SDS011;5573;49.592;8.662;2023-07-30T09:22:32;168.70;;;159.90;;
11039;SDS011;5573;49.592;8.662;2023-07-30T09:25:04;180.68;;;171.35;;
11039;SDS011;5573;49.592;8.662;2023-07-30T09:27:33;181.25;;;171.60;;
11039;SDS011;5573;49.592;8.662;2023-07-30T09:30:02;187.32;;;177.43;;
11039;SDS011;5573;49.592;8.662;2023-07-30T09:32:33;177.02;;;167.52;;
11039;SDS011;5573;49.592;8.662;2023-07-30T09:35:05;183.68;;;173.88;;
11039;SDS011;5573;49.592;8.662;2023-07-30T09:37:36;191.00;;;180.95;;
11039;SDS011;5573;49.592;8.662;2023-07-30T09:40:07;198.35;;;187.82;;
11039;SDS011;5573;49.592;8.662;2023-07-30T09:42:36;209.63;;;198.50;;
11039;SDS011;5573;49.592;8.662;2023-07-30T09:45:06;209.88;;;198.90;;
11039;SDS011;5573;49.592;8.662;2023-07-30T09:47:36;204.55;;;193.75;;
11039;SDS011;5573;49.592;8.662;2023-07-30T09:50:05;204.50;;;193.82;;
11039;SDS011;5573;49.592;8.662;2023-07-30T09:52:34;213.70;;;202.73;;
11039;SDS011;5573;49.592;8.662;2023-07-30T09:55:02;211.02;;;200.07;;
11039;SDS011;5573;49.592;8.662;2023-07-30T09:57:34;214.75;;;203.70;;
11039;SDS011;5573;49.592;8.662;2023-07-30T10:00:02;200.55;;;190.20;;
11039;SDS011;5573;49.592;8.662;2023-07-30T10:02:33;201.95;;;191.27;;
11039;SDS011;5573;49.592;8.662;2023-07-30T10:05:09;201.70;;;191.10;;
11039;SDS011;5573;49.592;8.662;2023-07-30T10:07:40;202.18;;;191.52;;
11039;SDS011;5573;49.592;8.662;2023-07-30T10:10:11;200.90;;;190.38;;
11039;SDS011;5573;49.592;8.662;2023-07-30T10:12:41;199.40;;;188.82;;
11039;SDS011;5573;49.592;8.662;2023-07-30T10:15:11;186.88;;;176.93;;
11039;SDS011;5573;49.592;8.662;2023-07-30T10:17:39;197.90;;;187.57;;
11039;SDS011;5573;49.592;8.662;2023-07-30T10:20:19;210.57;;;199.68;;
11039;SDS011;5573;49.592;8.662;2023-07-30T10:22:53;214.18;;;203.13;;
11039;SDS011;5573;49.592;8.662;2023-07-30T10:25:21;212.25;;;201.20;;
11039;SDS011;5573;49.592;8.662;2023-07-30T10:27:51;201.35;;;190.57;;
11039;SDS011;5573;49.592;8.662;2023-07-30T10:30:20;215.20;;;204.07;;
11039;SDS011;5573;49.592;8.662;2023-07-30T10:32:58;214.23;;;203.07;;
11039;SDS011;5573;49.592;8.662;2023-07-30T10:35:41;208.20;;;197.50;;
11039;SDS011;5573;49.592;8.662;2023-07-30T10:38:13;205.07;;;194.43;;
11039;SDS011;5573;49.592;8.662;2023-07-30T10:43:28;199.07;;;188.55;;
11039;SDS011;5573;49.592;8.662;2023-07-30T10:45:57;209.35;;;198.52;;
11039;SDS011;5573;49.592;8.662;2023-07-30T10:48:32;208.60;;;197.70;;
11039;SDS011;5573;49.592;8.662;2023-07-30T10:51:01;202.52;;;192.10;;
11039;SDS011;5573;49.592;8.662;2023-07-30T10:53:29;214.10;;;203.07;;
11039;SDS011;5573;49.592;8.662;2023-07-30T10:55:58;194.85;;;184.75;;
11039;SDS011;5573;49.592;8.662;2023-07-30T10:58:30;208.35;;;197.43;;
11039;SDS011;5573;49.592;8.662;2023-07-30T11:00:59;198.25;;;188.02;;
11039;SDS011;5573;49.592;8.662;2023-07-30T11:03:28;208.68;;;197.93;;
11039;SDS011;5573;49.592;8.662;2023-07-30T11:05:58;209.13;;;198.27;;
11039;SDS011;5573;49.592;8.662;2023-07-30T11:08:33;181.30;;;171.95;;
11039;SDS011;5573;49.592;8.662;2023-07-30T11:11:02;191.00;;;181.02;;
11039;SDS011;5573;49.592;8.662;2023-07-30T11:13:36;174.43;;;165.32;;
11039;SDS011;5573;49.592;8.662;2023-07-30T11:16:05;183.77;;;174.25;;
11039;SDS011;5573;49.592;8.662;2023-07-30T11:18:34;178.50;;;169.38;;
11039;SDS011;5573;49.592;8.662;2023-07-30T11:21:03;184.85;;;175.27;;
11039;SDS011;5573;49.592;8.662;2023-07-30T11:23:32;168.98;;;160.25;;
11039;SDS011;5573;49.592;8.662;2023-07-30T11:26:01;171.25;;;162.43;;
11039;SDS011;5573;49.592;8.662;2023-07-30T11:28:30;157.68;;;149.52;;
11039;SDS011;5573;49.592;8.662;2023-07-30T11:31:05;145.13;;;137.55;;
11039;SDS011;5573;49.592;8.662;2023-07-30T11:33:33;149.45;;;141.75;;
11039;SDS011;5573;49.592;8.662;2023-07-30T11:36:04;145.43;;;138.00;;
11039;SDS011;5573;49.592;8.662;2023-07-30T11:38:33;140.73;;;133.50;;
11039;SDS011;5573;49.592;8.662;2023-07-30T11:41:02;144.02;;;136.70;;
11039;SDS011;5573;49.592;8.662;2023-07-30T11:43:31;141.95;;;134.63;;
11039;SDS011;5573;49.592;8.662;2023-07-30T11:46:07;140.65;;;133.40;;
11039;SDS011;5573;49.592;8.662;2023-07-30T11:48:37;144.52;;;137.07;;
11039;SDS011;5573;49.592;8.662;2023-07-30T11:51:05;133.88;;;127.05;;
11039;SDS011;5573;49.592;8.662;2023-07-30T11:53:49;147.13;;;139.63;;
11039;SDS011;5573;49.592;8.662;2023-07-30T11:56:19;144.15;;;136.65;;
11039;SDS011;5573;49.592;8.662;2023-07-30T11:58:49;143.07;;;135.60;;
11039;SDS011;5573;49.592;8.662;2023-07-30T12:01:20;143.30;;;135.98;;
11039;SDS011;5573;49.592;8.662;2023-07-30T12:03:48;145.00;;;137.55;;
11039;SDS011;5573;49.592;8.662;2023-07-30T12:06:16;142.68;;;135.38;;
11039;SDS011;5573;49.592;8.662;2023-07-30T12:08:44;128.32;;;121.75;;
11039;SDS011;5573;49.592;8.662;2023-07-30T12:11:12;126.03;;;119.53;;
11039;SDS011;5573;49.592;8.662;2023-07-30T12:13:43;138.40;;;131.27;;
11039;SDS011;5573;49.592;8.662;2023-07-30T12:16:13;140.80;;;133.38;;
11039;SDS011;5573;49.592;8.662;2023-07-30T12:18:45;128.57;;;121.97;;
11039;SDS011;5573;49.592;8.662;2023-07-30T12:21:13;126.50;;;119.75;;
11039;SDS011;5573;49.592;8.662;2023-07-30T12:23:41;121.28;;;114.90;;
11039;SDS011;5573;49.592;8.662;2023-07-30T12:26:09;126.13;;;119.60;;
11039;SDS011;5573;49.592;8.662;2023-07-30T12:28:37;132.70;;;125.75;;
11039;SDS011;5573;49.592;8.662;2023-07-30T12:31:05;128.23;;;121.68;;
11039;SDS011;5573;49.592;8.662;2023-07-30T12:33:33;132.93;;;125.82;;
11039;SDS011;5573;49.592;8.662;2023-07-30T12:36:02;122.32;;;116.03;;
11039;SDS011;5573;49.592;8.662;2023-07-30T12:38:31;130.95;;;124.05;;
11039;SDS011;5573;49.592;8.662;2023-07-30T12:40:58;130.75;;;124.00;;
11039;SDS011;5573;49.592;8.662;2023-07-30T12:43:26;130.40;;;123.65;;
11039;SDS011;5573;49.592;8.662;2023-07-30T12:45:54;134.02;;;127.10;;
11039;SDS011;5573;49.592;8.662;2023-07-30T12:48:22;127.10;;;120.53;;
11039;SDS011;5573;49.592;8.662;2023-07-30T12:50:50;132.02;;;125.22;;
11039;SDS011;5573;49.592;8.662;2023-07-30T12:53:19;128.20;;;121.53;;
11039;SDS011;5573;49.592;8.662;2023-07-30T12:55:47;123.40;;;117.07;;
11039;SDS011;5573;49.592;8.662;2023-07-30T12:58:15;134.02;;;127.00;;
11039;SDS011;5573;49.592;8.662;2023-07-30T13:00:42;133.57;;;126.68;;
11039;SDS011;5573;49.592;8.662;2023-07-30T13:03:10;142.27;;;134.80;;
11039;SDS011;5573;49.592;8.662;2023-07-30T13:05:38;136.25;;;129.13;;
11039;SDS011;5573;49.592;8.662;2023-07-30T13:08:06;139.48;;;132.15;;
11039;SDS011;5573;49.592;8.662;2023-07-30T13:10:35;142.85;;;135.52;;
11039;SDS011;5573;49.592;8.662;2023-07-30T13:13:03;151.50;;;143.77;;
11039;SDS011;5573;49.592;8.662;2023-07-30T13:15:31;170.02;;;161.40;;
11039;SDS011;5573;49.592;8.662;2023-07-30T13:17:59;189.63;;;179.98;;
11039;SDS011;5573;49.592;8.662;2023-07-30T13:20:27;194.73;;;184.63;;
11039;SDS011;5573;49.592;8.662;2023-07-30T13:22:54;189.98;;;180.20;;
11039;SDS011;5573;49.592;8.662;2023-07-30T13:25:22;179.15;;;170.10;;
11039;SDS011;5573;49.592;8.662;2023-07-30T13:27:52;174.07;;;165.27;;
11039;SDS011;5573;49.592;8.662;2023-07-30T13:30:20;149.40;;;141.70;;
11039;SDS011;5573;49.592;8.662;2023-07-30T13:32:48;140.57;;;133.20;;
11039;SDS011;5573;49.592;8.662;2023-07-30T13:35:15;127.72;;;121.10;;
11039;SDS011;5573;49.592;8.662;2023-07-30T13:37:44;125.88;;;119.35;;
11039;SDS011;5573;49.592;8.662;2023-07-30T13:40:11;134.43;;;127.35;;
11039;SDS011;5573;49.592;8.662;2023-07-30T13:42:39;122.20;;;115.85;;
11039;SDS011;5573;49.592;8.662;2023-07-30T13:45:09;131.95;;;125.03;;
11039;SDS011;5573;49.592;8.662;2023-07-30T13:47:37;133.93;;;127.00;;
11039;SDS011;5573;49.592;8.662;2023-07-30T13:50:05;132.38;;;125.45;;
11039;SDS011;5573;49.592;8.662;2023-07-30T13:52:34;132.93;;;126.00;;
11039;SDS011;5573;49.592;8.662;2023-07-30T13:55:02;123.88;;;117.43;;
11039;SDS011;5573;49.592;8.662;2023-07-30T13:57:30;131.32;;;124.47;;
11039;SDS011;5573;49.592;8.662;2023-07-30T14:00:02;123.82;;;117.45;;
11039;SDS011;5573;49.592;8.662;2023-07-30T14:02:31;127.32;;;120.65;;
11039;SDS011;5573;49.592;8.662;2023-07-30T14:04:59;146.32;;;138.73;;
11039;SDS011;5573;49.592;8.662;2023-07-30T14:07:27;143.30;;;135.93;;
11039;SDS011;5573;49.592;8.662;2023-07-30T14:09:55;129.90;;;123.13;;
11039;SDS011;5573;49.592;8.662;2023-07-30T14:12:23;137.68;;;130.52;;
11039;SDS011;5573;49.592;8.662;2023-07-30T14:14:51;133.25;;;126.32;;
11039;SDS011;5573;49.592;8.662;2023-07-30T14:17:18;128.52;;;121.80;;
11039;SDS011;5573;49.592;8.662;2023-07-30T14:19:48;143.35;;;135.85;;